CPX453 Details

Departure: Portland International Airport (KPDX)
Arrival: March Air Reserve Base (KRIV)
Route: CASCD2 JOGEN Q7 AVE J6 PMD MARCH4


Current Weather Information
KPDX 251053Z 33003KT 10SM FEW050 17/12 A3009 RMK AO2 SLP188 T01670122 $
KRIV 251058Z AUTO 00000KT 10SM CLR 18/18 A3000 RMK AO2 SLP144 T01830181